Time;durP1;ratioP1;P1;durP2;ratioP2;P2;SDS_P1;SDS_P2;PMS_P1;PMS_P2;Temp;Humidity;BMP_temperature;BMP_pressure;BME280_temperature;BME280_humidity;BME280_pressure;Samples;Min_cycle;Max_cycle;Signal;HPM_P1;HPM_P2
2022/08/31 00:04:56;;;;;;;12.35;5.93;;;;;;;;;;10343403;28;20067;-67
2022/08/31 00:09:54;;;;;;;10.00;5.50;;;;;;;;;;10343281;28;20064;-66
2022/08/31 00:14:53;;;;;;;8.77;5.57;;;;;;;;;;10343912;28;20067;-66
2022/08/31 00:19:51;;;;;;;9.75;5.93;;;;;;;;;;10341658;28;20098;-66
2022/08/31 00:24:51;;;;;;;20.48;5.43;;;;;;;;;;10342444;28;20082;-67
2022/08/31 00:29:49;;;;;;;6.40;5.57;;;;;;;;;;10341913;28;20074;-67
2022/08/31 00:34:47;;;;;;;11.98;6.25;;;;;;;;;;10343048;28;20079;-68
2022/08/31 00:39:46;;;;;;;10.45;5.88;;;;;;;;;;10341477;28;20080;-67
2022/08/31 00:44:45;;;;;;;8.40;5.50;;;;;;;;;;10323099;28;20070;-66
2022/08/31 00:49:45;;;;;;;9.10;5.85;;;;;;;;;;10341270;28;20059;-67
2022/08/31 00:54:46;;;;;;;10.68;5.95;;;;;;;;;;10347559;28;20078;-67
2022/08/31 00:59:47;;;;;;;8.43;5.53;;;;;;;;;;10350499;28;20063;-67
2022/08/31 01:04:45;;;;;;;7.65;5.80;;;;;;;;;;10350458;28;20063;-67
2022/08/31 01:09:44;;;;;;;9.88;6.28;;;;;;;;;;10349628;28;20524;-67
2022/08/31 01:14:54;;;;;;;12.00;6.03;;;;;;;;;;10349483;28;20137;-66
2022/08/31 01:19:55;;;;;;;12.13;5.70;;;;;;;;;;10350257;28;20078;-68
2022/08/31 01:24:56;;;;;;;7.93;6.00;;;;;;;;;;10349486;28;20086;-67
2022/08/31 01:29:54;;;;;;;10.15;6.20;;;;;;;;;;10329857;28;20047;-67
2022/08/31 01:34:58;;;;;;;11.57;6.47;;;;;;;;;;10328085;28;20055;-68
2022/08/31 01:39:58;;;;;;;9.18;6.32;;;;;;;;;;10346464;28;20490;-68
2022/08/31 01:44:57;;;;;;;13.35;6.63;;;;;;;;;;10326566;28;20040;-67
2022/08/31 01:49:55;;;;;;;10.63;6.32;;;;;;;;;;10347674;28;20083;-67
2022/08/31 01:54:55;;;;;;;7.18;6.47;;;;;;;;;;10347402;28;20055;-67
2022/08/31 01:59:55;;;;;;;10.75;6.35;;;;;;;;;;10327079;28;20090;-67
2022/08/31 02:05:14;;;;;;;13.40;6.93;;;;;;;;;;10349559;28;20413;-66
2022/08/31 02:10:15;;;;;;;10.80;7.78;;;;;;;;;;10329504;28;20055;-67
2022/08/31 02:15:14;;;;;;;10.52;6.55;;;;;;;;;;10327740;28;20040;-66
2022/08/31 02:20:13;;;;;;;9.45;6.65;;;;;;;;;;10329190;28;20181;-66
2022/08/31 02:25:11;;;;;;;14.45;7.15;;;;;;;;;;10328512;28;20044;-65
2022/08/31 02:30:12;;;;;;;9.70;6.45;;;;;;;;;;10347708;28;20092;-67
2022/08/31 02:35:13;;;;;;;9.02;6.47;;;;;;;;;;10327798;28;20044;-66
2022/08/31 02:40:12;;;;;;;17.83;7.68;;;;;;;;;;10344870;28;20072;-65
2022/08/31 02:45:12;;;;;;;10.23;7.05;;;;;;;;;;10343338;28;20043;-66
2022/08/31 02:50:12;;;;;;;11.02;7.15;;;;;;;;;;10328553;28;20044;-67
2022/08/31 02:55:11;;;;;;;12.20;6.57;;;;;;;;;;10347243;28;20496;-65
2022/08/31 03:00:10;;;;;;;11.00;6.78;;;;;;;;;;10335791;28;20086;-67
2022/08/31 03:05:09;;;;;;;7.82;6.90;;;;;;;;;;10337004;28;20048;-67
2022/08/31 03:10:10;;;;;;;7.53;6.63;;;;;;;;;;10322310;28;20063;-67
2022/08/31 03:15:09;;;;;;;12.65;7.13;;;;;;;;;;10344923;28;20087;-67
2022/08/31 03:20:09;;;;;;;9.93;7.28;;;;;;;;;;10327410;28;20547;-67
2022/08/31 03:25:09;;;;;;;11.13;7.28;;;;;;;;;;10342822;28;20071;-67
2022/08/31 03:30:11;;;;;;;11.00;7.30;;;;;;;;;;10344813;28;20044;-67
2022/08/31 03:35:13;;;;;;;12.77;8.40;;;;;;;;;;10323308;28;20049;-65
2022/08/31 03:40:13;;;;;;;14.93;9.00;;;;;;;;;;10342158;28;20102;-66
2022/08/31 03:45:12;;;;;;;10.02;7.32;;;;;;;;;;10344817;28;20082;-66
2022/08/31 03:50:11;;;;;;;13.30;8.35;;;;;;;;;;10333211;28;20075;-66
2022/08/31 03:55:28;;;;;;;11.07;7.68;;;;;;;;;;10326131;28;20499;-67
2022/08/31 04:00:27;;;;;;;12.30;8.30;;;;;;;;;;10325262;28;20482;-67
2022/08/31 04:05:32;;;;;;;15.52;8.48;;;;;;;;;;10325500;28;20080;-67
2022/08/31 04:11:11;;;;;;;9.10;7.55;;;;;;;;;;10260495;28;20100;-67
2022/08/31 04:16:39;;;;;;;11.45;8.50;;;;;;;;;;10318130;28;20102;-67
2022/08/31 04:21:57;;;;;;;14.13;8.18;;;;;;;;;;10341119;28;20080;-67
2022/08/31 04:26:58;;;;;;;17.70;8.95;;;;;;;;;;10325580;28;20053;-67
2022/08/31 04:31:56;;;;;;;11.90;8.23;;;;;;;;;;10341414;28;20060;-67
2022/08/31 04:36:55;;;;;;;15.52;8.75;;;;;;;;;;10347395;28;20040;-67
2022/08/31 04:41:55;;;;;;;12.05;8.70;;;;;;;;;;10337899;28;20044;-67
2022/08/31 04:46:56;;;;;;;12.40;7.70;;;;;;;;;;10324218;28;20045;-67
2022/08/31 04:51:54;;;;;;;13.52;8.35;;;;;;;;;;10320031;28;20136;-67
2022/08/31 04:56:53;;;;;;;9.98;8.70;;;;;;;;;;10323029;28;20044;-67
2022/08/31 05:02:00;;;;;;;9.85;8.20;;;;;;;;;;10322543;28;20083;-67
2022/08/31 05:07:25;;;;;;;11.57;9.73;;;;;;;;;;10338449;28;20086;-67
2022/08/31 05:12:26;;;;;;;11.77;9.35;;;;;;;;;;10318851;28;20090;-66
2022/08/31 05:17:25;;;;;;;16.20;9.05;;;;;;;;;;10318510;28;20068;-67
2022/08/31 05:22:24;;;;;;;13.73;8.55;;;;;;;;;;10340812;28;20068;-67
2022/08/31 05:27:24;;;;;;;13.20;8.70;;;;;;;;;;10333396;28;20052;-67
2022/08/31 05:32:22;;;;;;;13.15;7.82;;;;;;;;;;10330004;28;20068;-67
2022/08/31 05:37:24;;;;;;;9.05;8.02;;;;;;;;;;10326355;28;20082;-67
2022/08/31 05:42:24;;;;;;;15.07;9.65;;;;;;;;;;10329706;28;20076;-67
2022/08/31 05:47:22;;;;;;;12.85;8.93;;;;;;;;;;10341254;28;20095;-67
2022/08/31 05:52:20;;;;;;;27.95;10.15;;;;;;;;;;10325376;28;20482;-67
2022/08/31 05:57:25;;;;;;;15.70;8.45;;;;;;;;;;10335778;28;20074;-67
2022/08/31 06:02:26;;;;;;;14.98;9.10;;;;;;;;;;10350171;28;20086;-67
2022/08/31 06:07:28;;;;;;;17.40;8.88;;;;;;;;;;10324626;28;20527;-65
2022/08/31 06:12:33;;;;;;;9.60;8.65;;;;;;;;;;10341693;28;20056;-66
2022/08/31 06:17:32;;;;;;;12.80;8.38;;;;;;;;;;10341383;28;20048;-65
2022/08/31 06:22:34;;;;;;;11.70;7.68;;;;;;;;;;10337431;28;20082;-65
2022/08/31 06:27:37;;;;;;;10.38;7.70;;;;;;;;;;10333963;28;20082;-66
2022/08/31 06:32:37;;;;;;;;;;;;;;;;;;10334219;28;20489;-67
2022/08/31 06:37:37;;;;;;;11.65;7.60;;;;;;;;;;10324018;28;19931;-66
2022/08/31 06:42:39;;;;;;;13.48;9.02;;;;;;;;;;10346564;28;20071;-66
2022/08/31 06:47:57;;;;;;;11.25;8.10;;;;;;;;;;10315017;28;20095;-67
2022/08/31 06:52:57;;;;;;;11.10;8.68;;;;;;;;;;10322889;28;20076;-67
2022/08/31 06:58:18;;;;;;;10.18;8.25;;;;;;;;;;10323743;28;20740;-67
2022/08/31 07:03:31;;;;;;;11.60;9.20;;;;;;;;;;10341133;28;20074;-66
2022/08/31 07:08:32;;;;;;;12.23;9.00;;;;;;;;;;10327138;28;20094;-68
2022/08/31 07:13:32;;;;;;;12.98;8.65;;;;;;;;;;10325986;28;20533;-66
2022/08/31 07:18:30;;;;;;;11.45;9.73;;;;;;;;;;10344286;28;20063;-67
2022/08/31 07:23:29;;;;;;;17.52;8.82;;;;;;;;;;10326938;28;20048;-66
2022/08/31 07:28:37;;;;;;;10.50;8.60;;;;;;;;;;10326181;28;20048;-65
2022/08/31 07:33:37;;;;;;;13.75;8.93;;;;;;;;;;10324879;28;20082;-66
2022/08/31 07:43:58;;;;;;;12.00;8.75;;;;;;;;;;10327295;28;20131;-67
2022/08/31 07:48:57;;;;;;;14.07;8.38;;;;;;;;;;10324532;28;20390;-66
2022/08/31 07:54:17;;;;;;;10.20;8.00;;;;;;;;;;10344477;28;20486;-65
2022/08/31 07:59:43;;;;;;;10.70;9.48;;;;;;;;;;10333153;28;20402;-66
2022/08/31 08:04:41;;;;;;;10.32;7.63;;;;;;;;;;10323137;28;20513;-66
2022/08/31 08:09:55;;;;;;;14.83;9.33;;;;;;;;;;10343014;28;20075;-66
2022/08/31 08:15:15;;;;;;;12.48;10.07;;;;;;;;;;10341059;28;20039;-66
2022/08/31 08:20:40;;;;;;;13.77;9.10;;;;;;;;;;10343013;28;20265;-67
2022/08/31 08:25:38;;;;;;;13.40;8.00;;;;;;;;;;10330066;28;20047;-66
2022/08/31 08:30:53;;;;;;;17.52;8.82;;;;;;;;;;10336573;28;20346;-66
2022/08/31 08:35:55;;;;;;;17.15;8.90;;;;;;;;;;10335017;28;20536;-67
2022/08/31 08:40:54;;;;;;;12.38;7.13;;;;;;;;;;10330337;28;20083;-66
2022/08/31 08:45:54;;;;;;;13.95;8.15;;;;;;;;;;10345149;28;20051;-66
2022/08/31 08:51:00;;;;;;;16.63;7.65;;;;;;;;;;10336490;28;20048;-66
2022/08/31 08:56:11;;;;;;;18.92;7.53;;;;;;;;;;10333011;28;20048;-66
2022/08/31 09:01:34;;;;;;;23.17;10.02;;;;;;;;;;10328055;28;20076;-66
2022/08/31 09:06:36;;;;;;;16.17;7.40;;;;;;;;;;10318789;28;20502;-65
2022/08/31 09:11:49;;;;;;;21.58;8.10;;;;;;;;;;10319693;28;20068;-66
2022/08/31 09:16:55;;;;;;;18.05;8.30;;;;;;;;;;10342316;28;20045;-66
2022/08/31 09:21:54;;;;;;;16.45;9.45;;;;;;;;;;10343072;28;20076;-65
2022/08/31 09:26:59;;;;;;;18.48;9.23;;;;;;;;;;10330335;28;20052;-66
2022/08/31 09:32:08;;;;;;;13.77;7.75;;;;;;;;;;10347074;28;20091;-66
2022/08/31 09:37:15;;;;;;;13.65;9.35;;;;;;;;;;10346431;28;20548;-66
2022/08/31 09:42:17;;;;;;;17.95;8.18;;;;;;;;;;10350041;28;20080;-66
2022/08/31 09:47:44;;;;;;;28.25;9.55;;;;;;;;;;10346948;28;20045;-66
2022/08/31 09:58:10;;;;;;;23.00;8.30;;;;;;;;;;10346170;28;20474;-66
2022/08/31 10:03:18;;;;;;;15.65;7.57;;;;;;;;;;10345845;28;20079;-66
2022/08/31 10:08:34;;;;;;;19.92;8.10;;;;;;;;;;10346809;28;20076;-66
2022/08/31 10:13:37;;;;;;;24.10;6.78;;;;;;;;;;10345499;28;20083;-67
2022/08/31 10:18:40;;;;;;;12.02;6.05;;;;;;;;;;10346259;28;20078;-67
2022/08/31 10:23:52;;;;;;;21.08;7.20;;;;;;;;;;10359469;28;20075;-66
2022/08/31 10:28:52;;;;;;;18.42;8.43;;;;;;;;;;10359888;28;20051;-67
2022/08/31 10:39:16;;;;;;;23.58;8.18;;;;;;;;;;10345713;28;20071;-67
2022/08/31 10:44:17;;;;;;;15.93;7.40;;;;;;;;;;10345211;28;20086;-66
2022/08/31 10:49:19;;;;;;;14.90;7.35;;;;;;;;;;10344019;28;20498;-67
2022/08/31 10:54:27;;;;;;;11.10;7.63;;;;;;;;;;10345119;28;20076;-67
2022/08/31 10:59:30;;;;;;;12.40;7.75;;;;;;;;;;10339423;28;20063;-65
2022/08/31 11:04:44;;;;;;;17.07;7.40;;;;;;;;;;10345336;28;20075;-67
2022/08/31 11:09:49;;;;;;;14.73;7.03;;;;;;;;;;10344454;28;20060;-67
2022/08/31 11:15:08;;;;;;;15.13;7.00;;;;;;;;;;10346880;28;20441;-65
2022/08/31 11:20:25;;;;;;;19.02;9.85;;;;;;;;;;10343882;28;20039;-67
2022/08/31 11:25:36;;;;;;;15.15;8.18;;;;;;;;;;10344685;28;20083;-64
2022/08/31 11:30:36;;;;;;;18.38;7.72;;;;;;;;;;10352441;28;20520;-66
2022/08/31 11:35:59;;;;;;;12.75;6.53;;;;;;;;;;10346141;28;20075;-67
2022/08/31 11:41:04;;;;;;;16.27;8.27;;;;;;;;;;10342823;28;20072;-66
2022/08/31 11:46:18;;;;;;;15.25;7.28;;;;;;;;;;10349566;28;20086;-67
2022/08/31 11:51:16;;;;;;;;;;;;;;;;;;10345772;28;20080;-66
2022/08/31 11:56:30;;;;;;;20.05;6.68;;;;;;;;;;10340517;28;19971;-67
2022/08/31 12:01:29;;;;;;;;;;;;;;;;;;10343165;28;20067;-66
2022/08/31 12:06:46;;;;;;;19.38;6.30;;;;;;;;;;10344325;28;19971;-69
2022/08/31 12:11:49;;;;;;;17.83;7.03;;;;;;;;;;10338745;28;20493;-66
2022/08/31 12:16:48;;;;;;;;;;;;;;;;;;10336925;28;20087;-67
2022/08/31 12:27:19;;;;;;;12.70;5.57;;;;;;;;;;10337887;28;20068;-66
2022/08/31 12:32:21;;;;;;;20.85;5.88;;;;;;;;;;10336686;28;20068;-65
2022/08/31 12:37:27;;;;;;;17.25;6.25;;;;;;;;;;10342211;28;20060;-67
2022/08/31 12:42:27;;;;;;;16.10;5.65;;;;;;;;;;10352504;28;20079;-67
2022/08/31 12:47:32;;;;;;;20.17;6.30;;;;;;;;;;10353525;28;20091;-66
2022/08/31 12:52:36;;;;;;;14.60;6.70;;;;;;;;;;10347339;28;20473;-68
2022/08/31 12:57:42;;;;;;;12.73;5.43;;;;;;;;;;10333131;28;20056;-67
2022/08/31 13:02:45;;;;;;;15.68;6.10;;;;;;;;;;10348531;28;20080;-67
2022/08/31 13:07:53;;;;;;;19.65;5.85;;;;;;;;;;10354092;28;20094;-67
2022/08/31 13:12:54;;;;;;;14.98;7.55;;;;;;;;;;10336512;28;20157;-67
2022/08/31 13:17:53;;;;;;;26.25;6.20;;;;;;;;;;10339089;28;20465;-66
2022/08/31 13:22:56;;;;;;;18.42;6.43;;;;;;;;;;10342218;28;20079;-66
2022/08/31 13:27:56;;;;;;;17.95;6.22;;;;;;;;;;10340775;28;20498;-65
2022/08/31 13:32:54;;;;;;;17.42;6.35;;;;;;;;;;10340350;28;20076;-66
2022/08/31 13:38:03;;;;;;;13.40;5.55;;;;;;;;;;10340506;28;20064;-65
2022/08/31 13:43:04;;;;;;;23.25;6.07;;;;;;;;;;10339717;28;20098;-65
2022/08/31 13:48:08;;;;;;;16.75;6.03;;;;;;;;;;10339210;28;20076;-67
2022/08/31 13:53:08;;;;;;;17.05;5.45;;;;;;;;;;10340100;28;20471;-67
2022/08/31 13:58:27;;;;;;;16.95;7.53;;;;;;;;;;10339936;28;20468;-67
2022/08/31 14:03:30;;;;;;;15.80;5.38;;;;;;;;;;10341151;28;20076;-67
2022/08/31 14:08:29;;;;;;;;;;;;;;;;;;10346722;28;20078;-65
2022/08/31 14:13:34;;;;;;;11.73;4.72;;;;;;;;;;10341030;28;19955;-67
2022/08/31 14:18:37;;;;;;;14.75;6.75;;;;;;;;;;10345837;28;20067;-67
2022/08/31 14:23:36;;;;;;;12.25;6.05;;;;;;;;;;10346316;28;20083;-67
2022/08/31 14:28:42;;;;;;;22.92;8.48;;;;;;;;;;10346125;28;20474;-67
2022/08/31 14:33:42;;;;;;;16.95;10.35;;;;;;;;;;10359591;28;20079;-66
2022/08/31 14:38:41;;;;;;;13.70;6.57;;;;;;;;;;10360530;28;20056;-67
2022/08/31 14:43:42;;;;;;;12.95;7.75;;;;;;;;;;10360296;28;20302;-66
2022/08/31 14:48:43;;;;;;;15.60;8.10;;;;;;;;;;10344868;28;20079;-66
2022/08/31 14:53:41;;;;;;;19.48;7.32;;;;;;;;;;10345240;28;20067;-66
2022/08/31 14:58:41;;;;;;;13.73;5.50;;;;;;;;;;10344373;28;20071;-66
2022/08/31 15:03:40;;;;;;;9.65;5.57;;;;;;;;;;10344476;28;20091;-66
2022/08/31 15:08:39;;;;;;;17.13;10.23;;;;;;;;;;10344414;28;20067;-66
2022/08/31 15:13:38;;;;;;;17.67;10.13;;;;;;;;;;10342970;28;20720;-65
2022/08/31 15:18:41;;;;;;;17.60;7.55;;;;;;;;;;10344976;28;20074;-66
2022/08/31 15:23:40;;;;;;;12.70;7.30;;;;;;;;;;10344078;28;20068;-66
2022/08/31 15:28:40;;;;;;;20.92;7.25;;;;;;;;;;10341537;28;20059;-65
2022/08/31 15:33:48;;;;;;;15.95;8.85;;;;;;;;;;10342267;28;20053;-65
2022/08/31 15:38:50;;;;;;;24.67;10.27;;;;;;;;;;10342169;28;20087;-66
2022/08/31 15:43:50;;;;;;;15.10;6.80;;;;;;;;;;10343816;28;20072;-66
2022/08/31 15:48:50;;;;;;;15.55;7.38;;;;;;;;;;10342288;28;20078;-66
2022/08/31 15:53:50;;;;;;;13.77;6.28;;;;;;;;;;10343013;28;20083;-67
2022/08/31 15:59:08;;;;;;;14.73;9.43;;;;;;;;;;10342874;28;20088;-65
2022/08/31 16:04:22;;;;;;;19.98;7.25;;;;;;;;;;10342207;28;20484;-66
2022/08/31 16:09:20;;;;;;;19.52;8.07;;;;;;;;;;10332644;28;20046;-67
2022/08/31 16:14:21;;;;;;;10.27;6.05;;;;;;;;;;10337437;28;20118;-68
2022/08/31 16:19:23;;;;;;;15.25;6.55;;;;;;;;;;10337134;28;20568;-66
2022/08/31 16:24:35;;;;;;;15.13;7.10;;;;;;;;;;10337461;28;20067;-68
2022/08/31 16:29:34;;;;;;;19.27;6.25;;;;;;;;;;10341243;28;20063;-68
2022/08/31 16:34:35;;;;;;;12.50;5.72;;;;;;;;;;10339917;28;20072;-67
2022/08/31 16:39:34;;;;;;;20.75;5.78;;;;;;;;;;10340772;28;20063;-67
2022/08/31 16:44:36;;;;;;;16.50;5.23;;;;;;;;;;10323170;28;20083;-67
2022/08/31 16:49:39;;;;;;;13.65;5.82;;;;;;;;;;10342001;28;20509;-67
2022/08/31 16:54:40;;;;;;;20.57;5.80;;;;;;;;;;10353582;28;20040;-68
2022/08/31 16:59:40;;;;;;;14.83;5.53;;;;;;;;;;10355201;28;20437;-69
2022/08/31 17:04:41;;;;;;;11.35;6.20;;;;;;;;;;10354007;28;20067;-68
2022/08/31 17:09:49;;;;;;;15.02;6.45;;;;;;;;;;10344589;28;20060;-68
2022/08/31 17:14:51;;;;;;;14.20;5.78;;;;;;;;;;10345184;28;20052;-68
2022/08/31 17:19:51;;;;;;;18.38;7.43;;;;;;;;;;10341210;28;20105;-68
2022/08/31 17:24:53;;;;;;;16.35;5.68;;;;;;;;;;10346120;28;20501;-68
2022/08/31 17:29:54;;;;;;;11.88;5.90;;;;;;;;;;10346015;28;20064;-68
2022/08/31 17:34:56;;;;;;;31.42;6.47;;;;;;;;;;10348363;28;20059;-67
2022/08/31 17:39:55;;;;;;;23.48;6.68;;;;;;;;;;10350151;28;20116;-68
2022/08/31 17:44:54;;;;;;;16.25;5.85;;;;;;;;;;10348796;28;20068;-68
2022/08/31 17:49:53;;;;;;;16.52;5.38;;;;;;;;;;10352708;28;20082;-69
2022/08/31 17:54:54;;;;;;;15.57;5.63;;;;;;;;;;10354486;28;20067;-69
2022/08/31 17:59:53;;;;;;;11.80;5.78;;;;;;;;;;10356527;28;20066;-69
2022/08/31 18:04:52;;;;;;;18.70;7.30;;;;;;;;;;10343125;28;20083;-68
2022/08/31 18:09:51;;;;;;;16.60;5.95;;;;;;;;;;10342321;28;20067;-69
2022/08/31 18:14:56;;;;;;;16.92;6.05;;;;;;;;;;10341850;28;20060;-68
2022/08/31 18:19:55;;;;;;;18.77;5.68;;;;;;;;;;10346822;28;20071;-68
2022/08/31 18:24:53;;;;;;;11.30;5.07;;;;;;;;;;10353291;28;20460;-67
2022/08/31 18:29:55;;;;;;;15.43;5.85;;;;;;;;;;10353566;28;20060;-68
2022/08/31 18:34:54;;;;;;;12.20;5.95;;;;;;;;;;10345742;28;20075;-68
2022/08/31 18:45:18;;;;;;;16.42;5.72;;;;;;;;;;10360352;28;20516;-68
2022/08/31 18:50:17;;;;;;;13.13;6.07;;;;;;;;;;10357569;28;20563;-67
2022/08/31 18:55:15;;;;;;;11.43;5.35;;;;;;;;;;10352318;28;20079;-67
2022/08/31 19:00:16;;;;;;;13.10;5.35;;;;;;;;;;10350927;28;20062;-68
2022/08/31 19:05:15;;;;;;;19.73;7.32;;;;;;;;;;10351341;28;20071;-67
2022/08/31 19:10:14;;;;;;;14.32;5.40;;;;;;;;;;10349166;28;20103;-66
2022/08/31 19:15:13;;;;;;;15.40;6.20;;;;;;;;;;10349850;28;20074;-66
2022/08/31 19:20:13;;;;;;;16.13;6.55;;;;;;;;;;10352024;28;20071;-67
2022/08/31 19:25:12;;;;;;;11.70;5.30;;;;;;;;;;10351426;28;20068;-66
2022/08/31 19:30:15;;;;;;;10.77;4.82;;;;;;;;;;10350111;28;20063;-67
2022/08/31 19:35:17;;;;;;;16.13;4.93;;;;;;;;;;10334518;28;20078;-68
2022/08/31 19:40:15;;;;;;;11.57;4.60;;;;;;;;;;10318773;28;20075;-67
2022/08/31 19:45:17;;;;;;;8.75;4.68;;;;;;;;;;10326160;28;20068;-69
2022/08/31 19:50:38;;;;;;;11.98;5.78;;;;;;;;;;10331242;28;20762;-68
2022/08/31 19:55:48;;;;;;;14.20;6.22;;;;;;;;;;10342073;28;20066;-67
2022/08/31 20:00:48;;;;;;;9.93;5.13;;;;;;;;;;10340632;28;20075;-67
2022/08/31 20:05:48;;;;;;;11.55;4.32;;;;;;;;;;10344458;28;20079;-67
2022/08/31 20:10:46;;;;;;;14.88;4.93;;;;;;;;;;10346717;28;20063;-68
2022/08/31 20:15:45;;;;;;;17.70;5.43;;;;;;;;;;10346427;28;20067;-69
2022/08/31 20:20:44;;;;;;;12.65;5.18;;;;;;;;;;10346811;28;20489;-68
2022/08/31 20:25:45;;;;;;;14.55;4.68;;;;;;;;;;10348196;28;20072;-67
2022/08/31 20:30:44;;;;;;;16.05;5.45;;;;;;;;;;10347737;28;20453;-68
2022/08/31 20:35:46;;;;;;;10.70;4.75;;;;;;;;;;10338656;28;20068;-67
2022/08/31 20:40:50;;;;;;;10.43;4.75;;;;;;;;;;10346379;28;20488;-68
2022/08/31 20:45:49;;;;;;;6.03;4.30;;;;;;;;;;10342950;28;20106;-68
2022/08/31 20:50:48;;;;;;;11.52;5.80;;;;;;;;;;10325294;28;20505;-68
2022/08/31 20:55:49;;;;;;;13.63;5.35;;;;;;;;;;10347905;28;20075;-67
2022/08/31 21:00:48;;;;;;;8.80;4.18;;;;;;;;;;10346500;28;20076;-69
2022/08/31 21:05:46;;;;;;;7.85;4.57;;;;;;;;;;10349905;28;20075;-68
2022/08/31 21:10:45;;;;;;;8.75;3.85;;;;;;;;;;10354359;28;20137;-68
2022/08/31 21:15:49;;;;;;;9.65;4.90;;;;;;;;;;10363772;28;20040;-68
2022/08/31 21:20:50;;;;;;;11.40;4.43;;;;;;;;;;10364287;28;20048;-68
2022/08/31 21:25:48;;;;;;;12.02;4.65;;;;;;;;;;10358399;28;20076;-68
2022/08/31 21:30:51;;;;;;;12.70;4.00;;;;;;;;;;10346364;28;20078;-67
2022/08/31 21:35:49;;;;;;;9.03;4.73;;;;;;;;;;10350880;28;20048;-68
2022/08/31 21:40:48;;;;;;;9.90;4.63;;;;;;;;;;10350839;28;20345;-68
2022/08/31 21:45:59;;;;;;;9.50;4.68;;;;;;;;;;10331128;28;20048;-67
2022/08/31 21:50:58;;;;;;;11.48;4.55;;;;;;;;;;10347844;28;20489;-67
2022/08/31 21:55:56;;;;;;;9.82;5.35;;;;;;;;;;10349364;28;20076;-67
2022/08/31 22:00:56;;;;;;;13.07;6.13;;;;;;;;;;10348530;28;20043;-66
2022/08/31 22:05:54;;;;;;;12.18;6.38;;;;;;;;;;10349520;28;20541;-68
2022/08/31 22:10:53;;;;;;;10.73;6.40;;;;;;;;;;10350725;28;20048;-67
2022/08/31 22:15:52;;;;;;;8.70;6.43;;;;;;;;;;10349781;28;20081;-67
2022/08/31 22:20:51;;;;;;;10.73;6.55;;;;;;;;;;10344997;28;20052;-67
2022/08/31 22:25:50;;;;;;;10.85;6.28;;;;;;;;;;10348943;28;20086;-68
2022/08/31 22:30:49;;;;;;;12.52;6.53;;;;;;;;;;10348485;28;20047;-68
2022/08/31 22:35:47;;;;;;;13.55;6.07;;;;;;;;;;10347056;28;20051;-68
2022/08/31 22:40:48;;;;;;;7.47;5.85;;;;;;;;;;10348040;28;20051;-66
2022/08/31 22:45:47;;;;;;;10.98;6.07;;;;;;;;;;10346135;28;20067;-66
2022/08/31 22:50:46;;;;;;;10.65;5.85;;;;;;;;;;10343519;28;20127;-67
2022/08/31 22:55:45;;;;;;;6.18;5.35;;;;;;;;;;10346098;28;20080;-66
2022/08/31 23:00:47;;;;;;;7.43;6.07;;;;;;;;;;10344283;28;20071;-67
2022/08/31 23:05:46;;;;;;;7.82;5.72;;;;;;;;;;10349273;28;20067;-66
2022/08/31 23:10:45;;;;;;;8.07;5.60;;;;;;;;;;10342507;28;20074;-67
2022/08/31 23:15:48;;;;;;;8.85;5.63;;;;;;;;;;10347745;28;20413;-68
2022/08/31 23:20:48;;;;;;;8.63;5.23;;;;;;;;;;10346846;28;20036;-67
2022/08/31 23:25:47;;;;;;;7.95;5.18;;;;;;;;;;10344981;28;20078;-67
2022/08/31 23:30:48;;;;;;;6.97;5.40;;;;;;;;;;10345327;28;20524;-67
2022/08/31 23:35:47;;;;;;;5.13;4.38;;;;;;;;;;10341959;28;20047;-68
2022/08/31 23:40:47;;;;;;;7.93;4.63;;;;;;;;;;10344209;28;20067;-68
2022/08/31 23:45:51;;;;;;;;;;;;;;;;;;10345595;28;20068;-69
2022/08/31 23:50:51;;;;;;;8.68;5.50;;;;;;;;;;10344593;28;19931;-68
2022/08/31 23:55:49;;;;;;;6.63;4.90;;;;;;;;;;10344847;28;20033;-68
